Huntsville, Missouri
Current Conditions -  °F | °C
As of 8:55 AM on Monday 24 Nov 2014 (Local Time) from KVER Reporting Station
Overcast Overcast  
Wind Chill: 27°   Ceiling: 3200
Heat Index: 36°   Visibility: 10mi
Dew Point: 26°   Wind: 13mph
Humidity: 68%   Direction: 260°W
Pressure: 29.66"   Gusts: 24mph
Location:  39.44°N, 92.55°W
Report Text: KVER 241455Z AUTO 26011G21KT 10SM OVC032 02/M03 A2966 RMK AO2 T00201033
Loading
Personal Weather Stations






























Interactive Weather Map New forecast layout! Learn more

10-Day Weather Forecast

Advertisements
Track Severe Weather on mobile